createdAt,value
2022-12-03T00:00:36.676Z,7.57
2022-12-03T00:03:03.605Z,7.88
2022-12-03T00:05:30.787Z,7.97
2022-12-03T00:07:57.695Z,8.60
2022-12-03T00:10:24.558Z,8.18
2022-12-03T00:12:51.351Z,7.68
2022-12-03T00:15:18.133Z,7.00
2022-12-03T00:17:44.926Z,7.72
2022-12-03T00:20:17.190Z,7.40
2022-12-03T00:22:43.946Z,7.10
2022-12-03T00:25:10.678Z,7.45
2022-12-03T00:27:37.384Z,6.78
2022-12-03T00:30:05.040Z,6.78
2022-12-03T00:32:31.824Z,7.50
2022-12-03T00:34:58.577Z,7.47
2022-12-03T00:37:25.290Z,7.60
2022-12-03T00:39:52.002Z,7.32
2022-12-03T00:42:18.741Z,6.20
2022-12-03T00:44:45.427Z,5.93
2022-12-03T00:47:12.840Z,6.32
2022-12-03T00:49:39.718Z,7.38
2022-12-03T00:52:06.468Z,6.72
2022-12-03T00:54:33.266Z,5.95
2022-12-03T00:57:00.108Z,7.63
2022-12-03T00:59:26.819Z,7.00
2022-12-03T01:01:53.585Z,6.07
2022-12-03T01:04:20.510Z,7.57
2022-12-03T01:06:47.208Z,6.75
2022-12-03T01:09:13.943Z,7.80
2022-12-03T01:11:41.479Z,7.43
2022-12-03T01:14:12.815Z,7.72
2022-12-03T01:16:39.811Z,7.63
2022-12-03T01:19:06.785Z,7.93
2022-12-03T01:21:33.558Z,8.23
2022-12-03T01:24:00.304Z,8.13
2022-12-03T01:26:27.045Z,7.50
2022-12-03T01:28:53.761Z,8.73
2022-12-03T01:31:39.168Z,8.23
2022-12-03T01:34:06.204Z,8.90
2022-12-03T01:36:34.305Z,8.82
2022-12-03T01:39:02.035Z,8.52
2022-12-03T01:41:28.731Z,8.60
2022-12-03T01:43:55.630Z,8.85
2022-12-03T01:46:27.556Z,9.02
2022-12-03T01:48:54.549Z,9.95
2022-12-03T01:51:21.333Z,9.95
2022-12-03T01:53:48.113Z,9.40
2022-12-03T01:56:18.014Z,9.68
2022-12-03T01:58:44.988Z,9.43
2022-12-03T02:01:14.434Z,10.07
2022-12-03T02:03:41.287Z,8.85
2022-12-03T02:06:16.560Z,10.13
2022-12-03T02:08:43.346Z,9.80
2022-12-03T02:11:25.222Z,7.78
2022-12-03T02:13:53.410Z,10.50
2022-12-03T02:16:20.228Z,9.93
2022-12-03T02:18:47.041Z,9.90
2022-12-03T02:21:24.838Z,8.60
2022-12-03T02:23:59.125Z,9.73
2022-12-03T02:26:25.842Z,9.25
2022-12-03T02:28:52.577Z,9.30
2022-12-03T02:31:19.396Z,9.48
2022-12-03T02:33:46.188Z,9.30
2022-12-03T02:36:12.990Z,10.70
2022-12-03T02:38:39.717Z,8.68
2022-12-03T02:41:08.545Z,9.43
2022-12-03T02:43:35.374Z,10.30
2022-12-03T02:46:02.511Z,9.65
2022-12-03T02:48:32.061Z,13.80
2022-12-03T02:51:00.780Z,10.18
2022-12-03T02:53:29.025Z,7.85
2022-12-03T02:55:57.989Z,9.82
2022-12-03T02:58:24.710Z,8.27
2022-12-03T03:00:51.933Z,10.35
2022-12-03T03:03:18.730Z,7.88
2022-12-03T03:05:45.425Z,8.40
2022-12-03T03:08:12.273Z,8.55
2022-12-03T03:10:39.637Z,8.23
2022-12-03T03:13:11.853Z,7.35
2022-12-03T03:15:39.139Z,8.27
2022-12-03T03:18:06.264Z,7.28
2022-12-03T03:20:33.011Z,6.75
2022-12-03T03:23:11.765Z,6.70
2022-12-03T03:25:39.412Z,6.63
2022-12-03T03:28:06.352Z,6.88
2022-12-03T03:30:33.425Z,6.35
2022-12-03T03:33:00.159Z,7.90
2022-12-03T03:35:26.915Z,7.40
2022-12-03T03:37:56.495Z,6.20
2022-12-03T03:40:23.253Z,6.88
2022-12-03T03:42:50.001Z,7.88
2022-12-03T03:45:16.757Z,6.05
2022-12-03T03:47:43.478Z,6.18
2022-12-03T03:50:11.067Z,5.80
2022-12-03T03:52:37.860Z,6.40
2022-12-03T03:55:05.085Z,6.72
2022-12-03T03:57:31.929Z,6.85
2022-12-03T03:59:59.322Z,5.68
2022-12-03T04:02:26.817Z,7.03
2022-12-03T04:04:53.762Z,6.57
2022-12-03T04:07:20.673Z,7.43
2022-12-03T04:09:47.327Z,6.30
2022-12-03T04:12:32.573Z,6.63
2022-12-03T04:14:59.499Z,8.57
2022-12-03T04:17:26.226Z,6.80
2022-12-03T04:19:52.990Z,8.00
2022-12-03T04:22:38.177Z,8.27
2022-12-03T04:25:24.150Z,6.65
2022-12-03T04:28:09.483Z,7.80
2022-12-03T04:30:36.287Z,7.07
2022-12-03T04:33:21.709Z,7.10
2022-12-03T04:35:48.519Z,7.78
2022-12-03T04:38:16.099Z,8.27
2022-12-03T04:41:01.183Z,6.90
2022-12-03T04:43:28.533Z,8.82
2022-12-03T04:45:55.345Z,7.03
2022-12-03T04:48:22.137Z,7.85
2022-12-03T04:50:48.900Z,9.88
2022-12-03T04:53:15.688Z,9.68
2022-12-03T04:55:42.405Z,9.68
2022-12-03T04:58:09.428Z,10.00
2022-12-03T05:00:36.133Z,9.63
2022-12-03T05:03:02.954Z,8.50
2022-12-03T05:05:29.800Z,10.90
2022-12-03T05:07:56.587Z,11.82
2022-12-03T05:10:23.344Z,9.68
2022-12-03T05:12:50.040Z,11.57
2022-12-03T05:15:16.857Z,12.23
2022-12-03T05:17:43.611Z,12.32
2022-12-03T05:20:29.162Z,11.88
2022-12-03T05:22:55.914Z,11.00
2022-12-03T05:25:22.630Z,12.70
2022-12-03T05:27:49.370Z,12.02
2022-12-03T05:30:16.338Z,12.25
2022-12-03T05:32:43.045Z,11.52
2022-12-03T05:35:10.367Z,12.73
2022-12-03T05:37:37.353Z,12.63
2022-12-03T05:40:04.457Z,11.68
2022-12-03T05:42:49.691Z,10.75
2022-12-03T05:45:16.528Z,11.30
2022-12-03T05:47:43.234Z,11.50
2022-12-03T05:50:10.113Z,11.20
2022-12-03T05:52:36.829Z,10.70
2022-12-03T05:55:03.854Z,10.32
2022-12-03T05:57:33.592Z,11.13
2022-12-03T06:00:00.298Z,10.63
2022-12-03T06:02:27.059Z,11.38
2022-12-03T06:04:54.190Z,9.45
2022-12-03T06:07:21.076Z,10.40
2022-12-03T06:09:47.821Z,8.88
2022-12-03T06:12:14.547Z,9.95
2022-12-03T06:14:41.263Z,9.32
2022-12-03T06:17:08.230Z,12.10
2022-12-03T06:19:34.988Z,9.57
2022-12-03T06:22:01.708Z,8.88
2022-12-03T06:24:28.575Z,9.82
2022-12-03T06:26:55.302Z,8.68
2022-12-03T06:29:22.003Z,9.05
2022-12-03T06:31:48.734Z,9.07
2022-12-03T06:34:15.485Z,8.05
2022-12-03T06:36:42.217Z,10.32
2022-12-03T06:39:08.980Z,7.75
2022-12-03T06:41:35.739Z,8.90
2022-12-03T06:44:02.519Z,7.63
2022-12-03T06:46:29.240Z,7.72
2022-12-03T06:48:55.992Z,7.55
2022-12-03T06:51:22.714Z,8.55
2022-12-03T06:53:49.453Z,8.75
2022-12-03T06:56:20.067Z,7.78
2022-12-03T06:58:48.694Z,8.18
2022-12-03T07:01:15.454Z,8.60
2022-12-03T07:03:42.202Z,8.25
2022-12-03T07:06:09.024Z,7.65
2022-12-03T07:08:35.730Z,9.13
2022-12-03T07:11:02.485Z,7.80
2022-12-03T07:13:35.542Z,8.73
2022-12-03T07:16:06.666Z,7.60
2022-12-03T07:18:40.767Z,9.07
2022-12-03T07:21:14.577Z,6.80
2022-12-03T07:23:41.325Z,6.95
2022-12-03T07:26:08.163Z,8.00
2022-12-03T07:28:34.939Z,8.18
2022-12-03T07:31:01.832Z,6.18
2022-12-03T07:33:28.620Z,7.25
2022-12-03T07:35:55.308Z,7.90
2022-12-03T07:38:22.010Z,8.02
2022-12-03T07:40:48.726Z,7.25
2022-12-03T07:43:15.506Z,6.45
2022-12-03T07:45:42.266Z,6.80
2022-12-03T07:48:08.996Z,5.57
2022-12-03T07:50:38.606Z,6.47
2022-12-03T07:53:05.392Z,6.15
2022-12-03T07:55:32.149Z,6.72
2022-12-03T07:57:58.853Z,6.53
2022-12-03T08:00:25.674Z,6.32
2022-12-03T08:02:52.541Z,5.95
2022-12-03T08:05:19.320Z,5.85
2022-12-03T08:07:46.097Z,6.50
2022-12-03T08:10:13.116Z,6.90
2022-12-03T08:12:45.605Z,5.85
2022-12-03T08:15:14.654Z,5.70
2022-12-03T08:17:42.396Z,6.20
2022-12-03T08:20:20.198Z,6.18
2022-12-03T08:22:49.126Z,5.47
2022-12-03T08:25:23.972Z,5.57
2022-12-03T08:28:00.562Z,6.32
2022-12-03T08:30:27.296Z,6.15
2022-12-03T08:32:54.031Z,4.85
2022-12-03T08:35:23.862Z,6.10
2022-12-03T08:37:55.773Z,5.43
2022-12-03T08:40:24.364Z,6.03
2022-12-03T08:42:51.157Z,5.10
2022-12-03T08:45:30.324Z,5.78
2022-12-03T08:48:01.849Z,5.70
2022-12-03T08:50:28.837Z,5.20
2022-12-03T08:52:59.579Z,5.43
2022-12-03T08:55:34.359Z,5.15
2022-12-03T08:58:01.282Z,5.03
2022-12-03T09:00:28.135Z,5.35
2022-12-03T09:02:55.540Z,5.03
2022-12-03T09:05:23.943Z,5.28
2022-12-03T09:07:51.075Z,5.28
2022-12-03T09:10:18.205Z,5.25
2022-12-03T09:12:44.969Z,4.90
2022-12-03T09:15:12.323Z,5.30
2022-12-03T09:17:39.227Z,6.38
2022-12-03T09:20:07.176Z,5.80
2022-12-03T09:22:35.672Z,5.53
2022-12-03T09:25:02.461Z,4.50
2022-12-03T09:27:29.261Z,4.20
2022-12-03T09:29:56.042Z,5.00
2022-12-03T09:32:22.968Z,5.30
2022-12-03T09:34:49.776Z,5.00
2022-12-03T09:37:16.615Z,4.68
2022-12-03T09:39:46.107Z,4.85
2022-12-03T09:42:12.837Z,4.88
2022-12-03T09:44:39.556Z,6.05
2022-12-03T09:47:06.367Z,4.05
2022-12-03T09:49:33.284Z,5.55
2022-12-03T09:52:01.528Z,4.30
2022-12-03T09:54:29.091Z,4.80
2022-12-03T09:56:57.077Z,4.65
2022-12-03T09:59:26.327Z,5.13
2022-12-03T10:01:56.232Z,4.53
2022-12-03T10:04:23.106Z,4.30
2022-12-03T10:06:50.061Z,5.22
2022-12-03T10:09:22.740Z,5.20
2022-12-03T10:11:49.474Z,4.50
2022-12-03T10:14:16.855Z,4.38
2022-12-03T10:16:43.780Z,4.05
2022-12-03T10:19:16.358Z,4.43
2022-12-03T10:21:43.118Z,4.20
2022-12-03T10:24:18.887Z,4.13
2022-12-03T10:26:46.445Z,4.93
2022-12-03T10:29:28.378Z,4.47
2022-12-03T10:32:00.571Z,4.15
2022-12-03T10:34:30.649Z,5.03
2022-12-03T10:37:16.141Z,4.57
2022-12-03T10:40:09.166Z,4.47
2022-12-03T10:42:37.599Z,4.03
2022-12-03T10:45:16.699Z,4.95
2022-12-03T10:47:44.319Z,4.20
2022-12-03T10:50:19.024Z,5.53
2022-12-03T10:52:46.598Z,3.95
2022-12-03T10:55:13.988Z,4.22
2022-12-03T10:57:45.287Z,4.75
2022-12-03T11:00:19.162Z,4.85
2022-12-03T11:02:53.073Z,4.57
2022-12-03T11:05:23.341Z,4.55
2022-12-03T11:07:50.154Z,3.80
2022-12-03T11:10:18.048Z,5.47
2022-12-03T11:13:23.697Z,3.72
2022-12-03T11:15:50.520Z,3.78
2022-12-03T11:18:36.522Z,5.10
2022-12-03T11:21:05.394Z,3.88
2022-12-03T11:23:47.427Z,6.10
2022-12-03T11:26:19.531Z,3.47
2022-12-03T11:28:46.592Z,3.72
2022-12-03T11:31:47.220Z,5.45
2022-12-03T11:34:23.021Z,4.60
2022-12-03T11:37:11.149Z,3.72
2022-12-03T11:39:50.485Z,3.85
2022-12-03T11:42:26.497Z,4.15
2022-12-03T11:45:05.703Z,5.88
2022-12-03T11:47:43.774Z,4.60
2022-12-03T11:50:38.994Z,4.50
2022-12-03T11:53:16.499Z,5.15
2022-12-03T11:56:11.231Z,5.10
2022-12-03T12:01:06.988Z,4.97
2022-12-03T12:03:36.192Z,5.47
2022-12-03T12:06:06.943Z,4.90
2022-12-03T12:08:34.929Z,5.57
2022-12-03T12:11:02.478Z,5.00
2022-12-03T12:13:32.080Z,5.57
2022-12-03T12:16:02.501Z,4.93
2022-12-03T12:18:55.034Z,4.20
2022-12-03T12:21:42.014Z,4.70
2022-12-03T12:24:30.874Z,6.05
2022-12-03T12:26:58.944Z,4.55
2022-12-03T12:29:25.791Z,5.72
2022-12-03T12:31:57.773Z,5.20
2022-12-03T12:34:25.578Z,5.82
2022-12-03T12:36:52.657Z,5.28
2022-12-03T12:39:19.455Z,5.47
2022-12-03T12:41:48.551Z,6.30
2022-12-03T12:44:15.285Z,5.28
2022-12-03T12:46:48.060Z,5.68
2022-12-03T12:49:15.425Z,6.23
2022-12-03T12:51:45.782Z,6.45
2022-12-03T12:54:14.463Z,5.93
2022-12-03T12:56:42.911Z,5.78
2022-12-03T12:59:12.022Z,7.43
2022-12-03T13:01:38.961Z,6.35
2022-12-03T13:04:16.431Z,7.82
2022-12-03T13:06:43.248Z,8.98
2022-12-03T13:09:17.976Z,10.45
2022-12-03T13:11:46.017Z,9.38
2022-12-03T13:14:23.295Z,9.13
2022-12-03T13:16:51.355Z,8.18
2022-12-03T13:19:28.890Z,10.45
2022-12-03T13:21:56.792Z,10.05
2022-12-03T13:24:35.556Z,8.00
2022-12-03T13:27:18.322Z,9.07
2022-12-03T13:29:56.087Z,9.55
2022-12-03T13:32:27.773Z,9.02
2022-12-03T13:35:03.714Z,8.57
2022-12-03T13:37:30.431Z,9.45
2022-12-03T13:39:57.921Z,9.75
2022-12-03T13:42:41.514Z,9.82
2022-12-03T13:45:14.899Z,8.77
2022-12-03T13:47:42.463Z,9.20
2022-12-03T13:50:28.826Z,11.63
2022-12-03T13:52:55.695Z,9.20
2022-12-03T13:55:27.160Z,9.75
2022-12-03T13:57:54.379Z,9.68
2022-12-03T14:00:21.194Z,10.00
2022-12-03T14:02:47.996Z,9.90
2022-12-03T14:05:14.938Z,10.32
2022-12-03T14:07:41.951Z,10.18
2022-12-03T14:10:09.660Z,9.80
2022-12-03T14:12:37.044Z,10.07
2022-12-03T14:15:04.881Z,9.70
2022-12-03T14:17:31.907Z,9.82
2022-12-03T14:20:01.027Z,10.45
2022-12-03T14:22:28.051Z,9.63
2022-12-03T14:24:54.793Z,9.80
2022-12-03T14:27:21.614Z,10.63
2022-12-03T14:29:48.373Z,10.55
2022-12-03T14:32:15.205Z,9.23
2022-12-03T14:34:42.183Z,9.38
2022-12-03T14:37:08.934Z,10.05
2022-12-03T14:39:35.684Z,10.70
2022-12-03T14:42:14.421Z,9.00
2022-12-03T14:44:45.277Z,10.32
2022-12-03T14:47:12.325Z,10.02
2022-12-03T14:49:39.272Z,10.30
2022-12-03T14:52:09.907Z,11.50
2022-12-03T14:54:44.701Z,9.38
2022-12-03T14:57:15.110Z,10.15
2022-12-03T14:59:42.503Z,9.38
2022-12-03T15:02:09.653Z,9.73
2022-12-03T15:04:36.798Z,9.77
2022-12-03T15:07:03.659Z,10.80
2022-12-03T15:09:30.433Z,9.32
2022-12-03T15:11:57.341Z,10.40
2022-12-03T15:14:24.156Z,9.48
2022-12-03T15:16:50.902Z,11.60
2022-12-03T15:19:17.823Z,9.75
2022-12-03T15:21:44.662Z,9.57
2022-12-03T15:24:11.522Z,9.98
2022-12-03T15:26:38.347Z,11.13
2022-12-03T15:29:05.107Z,9.90
2022-12-03T15:31:32.118Z,10.32
2022-12-03T15:33:59.015Z,11.98
2022-12-03T15:36:25.768Z,10.02
2022-12-03T15:38:52.552Z,11.27
2022-12-03T15:41:28.984Z,10.77
2022-12-03T15:43:59.871Z,11.27
2022-12-03T15:46:27.929Z,10.40
2022-12-03T15:48:55.413Z,11.43
2022-12-03T15:51:22.178Z,10.68
2022-12-03T15:53:48.929Z,10.95
2022-12-03T15:56:15.898Z,10.48
2022-12-03T15:58:42.717Z,9.50
2022-12-03T16:01:09.736Z,10.80
2022-12-03T16:03:36.833Z,9.90
2022-12-03T16:06:03.701Z,11.13
2022-12-03T16:08:30.471Z,11.57
2022-12-03T16:10:57.246Z,10.90
2022-12-03T16:13:23.997Z,10.68
2022-12-03T16:15:51.177Z,8.82
2022-12-03T16:18:18.011Z,10.75
2022-12-03T16:20:44.738Z,12.50
2022-12-03T16:23:11.490Z,11.82
2022-12-03T16:25:38.200Z,11.65
2022-12-03T16:28:04.981Z,12.68
2022-12-03T16:30:31.862Z,11.27
2022-12-03T16:32:58.762Z,11.65
2022-12-03T16:35:25.533Z,12.65
2022-12-03T16:37:52.259Z,11.55
2022-12-03T16:40:19.006Z,12.98
2022-12-03T16:42:45.801Z,12.68
2022-12-03T16:45:23.156Z,12.93
2022-12-03T16:47:50.302Z,13.27
2022-12-03T16:50:23.088Z,13.07
2022-12-03T16:52:54.253Z,13.35
2022-12-03T16:55:21.217Z,13.57
2022-12-03T16:57:48.008Z,13.82
2022-12-03T17:00:15.251Z,14.65
2022-12-03T17:02:42.070Z,14.80
2022-12-03T17:05:09.011Z,28.05
2022-12-03T17:07:37.913Z,16.98
2022-12-03T17:10:05.404Z,15.45
2022-12-03T17:12:54.156Z,15.88
2022-12-03T17:15:18.894Z,13.23
2022-12-03T17:17:45.572Z,14.02
2022-12-03T17:20:14.595Z,13.10
2022-12-03T17:22:41.710Z,12.32
2022-12-03T17:25:09.146Z,11.93
2022-12-03T17:27:38.676Z,11.73
2022-12-03T17:30:10.970Z,11.65
2022-12-03T17:32:37.833Z,12.23
2022-12-03T17:35:04.858Z,11.50
2022-12-03T17:37:31.589Z,10.77
2022-12-03T17:39:58.417Z,12.95
2022-12-03T17:42:25.237Z,12.13
2022-12-03T17:44:52.002Z,11.38
2022-12-03T17:47:18.775Z,11.40
2022-12-03T17:49:45.483Z,11.52
2022-12-03T17:52:12.328Z,11.73
2022-12-03T17:55:08.497Z,11.43
2022-12-03T17:57:26.566Z,11.05
2022-12-03T17:59:53.611Z,14.25
2022-12-03T18:02:20.658Z,12.52
2022-12-03T18:04:48.008Z,11.90
2022-12-03T18:07:15.298Z,12.15
2022-12-03T18:09:42.571Z,12.38
2022-12-03T18:12:09.391Z,11.15
2022-12-03T18:14:36.299Z,12.48
2022-12-03T18:17:03.367Z,11.27
2022-12-03T18:19:30.507Z,13.05
2022-12-03T18:21:57.275Z,12.13
2022-12-03T18:24:24.445Z,12.73
2022-12-03T18:26:51.167Z,13.25
2022-12-03T18:29:17.905Z,13.05
2022-12-03T18:31:45.352Z,13.82
2022-12-03T18:34:12.249Z,14.38
2022-12-03T18:36:39.063Z,12.65
2022-12-03T18:39:09.245Z,13.15
2022-12-03T18:41:36.670Z,13.10
2022-12-03T18:44:04.257Z,13.52
2022-12-03T18:46:52.555Z,13.43
2022-12-03T18:49:17.755Z,14.30
2022-12-03T18:51:44.818Z,14.52
2022-12-03T18:54:14.772Z,14.18
2022-12-03T18:56:41.502Z,13.65
2022-12-03T18:59:08.472Z,14.65
2022-12-03T19:01:35.262Z,14.07
2022-12-03T19:04:02.360Z,14.05
2022-12-03T19:06:30.601Z,12.57
2022-12-03T19:08:57.749Z,13.05
2022-12-03T19:11:24.583Z,14.82
2022-12-03T19:13:52.280Z,13.43
2022-12-03T19:16:19.247Z,13.07
2022-12-03T19:18:46.058Z,14.45
2022-12-03T19:21:14.870Z,13.45
2022-12-03T19:23:47.233Z,12.90
2022-12-03T19:26:26.979Z,14.38
2022-12-03T19:28:54.034Z,14.50
2022-12-03T19:31:21.267Z,14.02
2022-12-03T19:33:48.122Z,13.45
2022-12-03T19:36:33.083Z,13.93
2022-12-03T19:39:00.090Z,13.68
2022-12-03T19:41:28.152Z,13.90
2022-12-03T19:43:55.752Z,12.55
2022-12-03T19:46:23.374Z,12.45
2022-12-03T19:48:50.972Z,12.82
2022-12-03T19:51:33.662Z,12.90
2022-12-03T19:54:02.285Z,12.65
2022-12-03T19:56:30.628Z,11.68
2022-12-03T19:58:57.564Z,10.63
2022-12-03T20:01:26.215Z,13.63
2022-12-03T20:03:54.350Z,12.23
2022-12-03T20:06:25.266Z,12.23
2022-12-03T20:08:58.418Z,11.80
2022-12-03T20:11:29.877Z,11.88
2022-12-03T20:13:58.372Z,13.18
2022-12-03T20:16:25.845Z,12.55
2022-12-03T20:18:56.253Z,11.18
2022-12-03T20:21:23.174Z,12.88
2022-12-03T20:23:49.897Z,11.32
2022-12-03T20:26:17.871Z,12.32
2022-12-03T20:28:44.953Z,11.35
2022-12-03T20:31:13.668Z,10.88
2022-12-03T20:33:41.897Z,12.32
2022-12-03T20:36:09.279Z,11.38
2022-12-03T20:38:36.986Z,12.27
2022-12-03T20:41:08.459Z,12.30
2022-12-03T20:43:35.279Z,12.80
2022-12-03T20:46:09.457Z,12.43
2022-12-03T20:48:36.343Z,12.18
2022-12-03T20:51:04.979Z,13.73
2022-12-03T20:53:31.864Z,13.13
2022-12-03T20:55:58.946Z,12.75
2022-12-03T20:58:25.690Z,12.15
2022-12-03T21:00:52.566Z,13.18
2022-12-03T21:03:19.639Z,13.55
2022-12-03T21:05:46.422Z,11.65
2022-12-03T21:08:13.222Z,12.98
2022-12-03T21:10:46.391Z,13.50
2022-12-03T21:13:17.039Z,11.93
2022-12-03T21:15:45.032Z,11.60
2022-12-03T21:18:19.700Z,11.82
2022-12-03T21:20:47.265Z,10.75
2022-12-03T21:23:17.086Z,11.93
2022-12-03T21:25:43.811Z,10.93
2022-12-03T21:28:11.166Z,10.95
2022-12-03T21:30:40.135Z,12.27
2022-12-03T21:33:07.101Z,11.73
2022-12-03T21:35:36.979Z,12.55
2022-12-03T21:38:06.417Z,11.65
2022-12-03T21:40:33.159Z,12.98
2022-12-03T21:43:00.466Z,13.95
2022-12-03T21:45:27.209Z,14.07
2022-12-03T21:47:54.213Z,13.60
2022-12-03T21:50:21.011Z,12.82
2022-12-03T21:52:47.831Z,13.48
2022-12-03T21:55:14.837Z,13.15
2022-12-03T21:57:41.644Z,13.63
2022-12-03T22:00:10.219Z,13.35
2022-12-03T22:02:39.675Z,12.95
2022-12-03T22:05:08.233Z,14.18
2022-12-03T22:07:39.156Z,13.93
2022-12-03T22:10:07.304Z,13.43
2022-12-03T22:12:34.294Z,12.05
2022-12-03T22:15:01.060Z,13.25
2022-12-03T22:17:28.022Z,13.32
2022-12-03T22:19:55.024Z,13.05
2022-12-03T22:22:22.644Z,13.52
2022-12-03T22:24:52.458Z,14.85
2022-12-03T22:27:19.420Z,12.48
2022-12-03T22:29:46.269Z,12.02
2022-12-03T22:32:13.090Z,16.50
2022-12-03T22:34:41.500Z,13.88
2022-12-03T22:37:08.415Z,12.70
2022-12-03T22:39:35.206Z,13.77
2022-12-03T22:42:01.996Z,15.10
2022-12-03T22:44:28.843Z,12.75
2022-12-03T22:46:55.712Z,13.27
2022-12-03T22:49:22.580Z,14.25
2022-12-03T22:51:49.521Z,13.73
2022-12-03T22:54:20.933Z,14.02
2022-12-03T22:56:50.748Z,14.38
2022-12-03T22:59:17.605Z,13.00
2022-12-03T23:01:44.599Z,14.23
2022-12-03T23:04:11.729Z,13.75
2022-12-03T23:06:38.826Z,13.52
2022-12-03T23:09:06.367Z,15.60
2022-12-03T23:11:33.087Z,14.50
2022-12-03T23:14:00.081Z,14.93
2022-12-03T23:16:29.106Z,14.27
2022-12-03T23:18:58.105Z,13.75
2022-12-03T23:21:29.973Z,13.07
2022-12-03T23:24:00.882Z,13.55
2022-12-03T23:26:27.753Z,14.30
2022-12-03T23:28:54.752Z,12.93
2022-12-03T23:31:21.770Z,12.93
2022-12-03T23:33:48.758Z,13.32
2022-12-03T23:36:15.672Z,14.25
2022-12-03T23:38:42.476Z,13.27
2022-12-03T23:41:11.544Z,14.57
2022-12-03T23:43:38.705Z,13.65
2022-12-03T23:46:06.707Z,13.32
2022-12-03T23:48:33.522Z,13.05
2022-12-03T23:51:04.506Z,12.90
2022-12-03T23:53:31.219Z,13.15
2022-12-03T23:55:58.018Z,14.00
2022-12-03T23:58:24.761Z,14.48
